createdAt,value
2022-12-15T00:02:21.655Z,18.95
2022-12-15T00:05:07.762Z,20.98
2022-12-15T00:07:54.059Z,20.77
2022-12-15T00:10:39.324Z,21.83
2022-12-15T00:13:32.775Z,20.90
2022-12-15T00:16:18.681Z,20.45
2022-12-15T00:19:04.767Z,21.00
2022-12-15T00:21:50.118Z,21.92
2022-12-15T00:24:35.945Z,19.95
2022-12-15T00:27:21.551Z,20.63
2022-12-15T00:30:06.823Z,21.77
2022-12-15T00:32:52.424Z,20.75
2022-12-15T00:35:37.716Z,21.48
2022-12-15T00:38:31.933Z,21.85
2022-12-15T00:40:59.747Z,22.10
2022-12-15T00:43:35.252Z,21.67
2022-12-15T00:46:21.793Z,21.70
2022-12-15T00:48:48.952Z,21.92
2022-12-15T00:51:16.504Z,21.55
2022-12-15T00:54:02.341Z,22.02
2022-12-15T00:56:47.702Z,22.33
2022-12-15T00:59:34.111Z,22.38
2022-12-15T01:02:20.828Z,21.35
2022-12-15T01:05:06.577Z,22.90
2022-12-15T01:07:51.933Z,21.38
2022-12-15T01:10:38.837Z,22.10
2022-12-15T01:13:24.446Z,23.83
2022-12-15T01:16:10.089Z,23.05
2022-12-15T01:18:55.572Z,21.20
2022-12-15T01:21:25.060Z,22.35
2022-12-15T01:23:52.669Z,22.10
2022-12-15T01:26:19.798Z,22.17
2022-12-15T01:28:46.670Z,24.08
2022-12-15T01:31:13.712Z,22.75
2022-12-15T01:33:42.660Z,21.83
2022-12-15T01:36:10.678Z,22.42
2022-12-15T01:38:37.872Z,23.10
2022-12-15T01:41:09.561Z,23.25
2022-12-15T01:43:38.656Z,23.45
2022-12-15T01:46:05.580Z,22.10
2022-12-15T01:48:46.931Z,21.90
2022-12-15T01:51:19.790Z,23.10
2022-12-15T01:53:59.060Z,21.85
2022-12-15T01:56:31.223Z,22.75
2022-12-15T01:59:04.876Z,21.85
2022-12-15T02:01:31.929Z,21.83
2022-12-15T02:03:58.964Z,23.70
2022-12-15T02:06:28.201Z,24.90
2022-12-15T02:08:57.140Z,23.48
2022-12-15T02:11:35.900Z,24.58
2022-12-15T02:14:05.382Z,24.40
2022-12-15T02:16:39.064Z,22.73
2022-12-15T02:19:27.035Z,22.55
2022-12-15T02:22:22.661Z,22.92
2022-12-15T02:24:52.182Z,22.02
2022-12-15T02:27:47.478Z,23.95
2022-12-15T02:30:33.033Z,23.60
2022-12-15T02:33:27.423Z,25.33
2022-12-15T02:36:04.438Z,22.50
2022-12-15T02:38:35.174Z,24.65
2022-12-15T02:41:04.627Z,24.67
2022-12-15T02:43:36.252Z,22.75
2022-12-15T02:46:27.071Z,24.10
2022-12-15T02:49:03.211Z,24.10
2022-12-15T02:51:44.681Z,24.65
2022-12-15T02:54:24.914Z,23.50
2022-12-15T02:56:54.741Z,25.08
2022-12-15T02:59:44.184Z,24.38
2022-12-15T03:02:13.280Z,24.02
2022-12-15T03:04:42.605Z,26.45
2022-12-15T03:07:10.653Z,25.02
2022-12-15T03:09:37.744Z,25.15
2022-12-15T03:12:05.243Z,26.38
2022-12-15T03:14:32.771Z,25.98
2022-12-15T03:16:59.651Z,25.45
2022-12-15T03:19:26.560Z,25.10
2022-12-15T03:21:53.406Z,26.80
2022-12-15T03:24:20.220Z,23.75
2022-12-15T03:26:50.089Z,25.13
2022-12-15T03:29:18.038Z,25.42
2022-12-15T03:31:45.459Z,25.05
2022-12-15T03:34:12.327Z,24.90
2022-12-15T03:36:39.251Z,25.33
2022-12-15T03:39:06.668Z,25.42
2022-12-15T03:41:33.439Z,26.23
2022-12-15T03:44:00.723Z,25.05
2022-12-15T03:46:27.540Z,27.55
2022-12-15T03:48:54.346Z,26.20
2022-12-15T03:51:21.627Z,26.40
2022-12-15T03:53:49.327Z,27.92
2022-12-15T03:56:17.335Z,28.27
2022-12-15T03:58:44.330Z,29.55
2022-12-15T04:01:28.845Z,27.52
2022-12-15T04:04:00.487Z,27.60
2022-12-15T04:06:29.275Z,26.42
2022-12-15T04:08:56.407Z,27.35
2022-12-15T04:11:23.251Z,27.63
2022-12-15T04:13:50.105Z,26.52
2022-12-15T04:16:20.141Z,26.83
2022-12-15T04:19:08.258Z,26.67
2022-12-15T04:21:35.057Z,27.48
2022-12-15T04:24:20.702Z,27.90
2022-12-15T04:27:05.894Z,26.83
2022-12-15T04:29:51.249Z,28.55
2022-12-15T04:32:36.526Z,27.90
2022-12-15T04:35:22.139Z,29.02
2022-12-15T04:38:07.475Z,29.00
2022-12-15T04:40:53.762Z,28.17
2022-12-15T04:43:39.491Z,27.65
2022-12-15T04:46:25.019Z,27.73
2022-12-15T04:49:10.596Z,25.98
2022-12-15T04:51:55.940Z,25.00
2022-12-15T04:54:41.301Z,27.27
2022-12-15T04:57:26.526Z,26.80
2022-12-15T05:00:12.073Z,27.25
2022-12-15T05:02:57.431Z,25.30
2022-12-15T05:05:42.700Z,25.65
2022-12-15T05:08:27.927Z,26.38
2022-12-15T05:11:13.160Z,25.88
2022-12-15T05:13:58.867Z,25.90
2022-12-15T05:16:44.264Z,25.92
2022-12-15T05:19:29.564Z,25.92
2022-12-15T05:22:14.906Z,25.10
2022-12-15T05:25:00.522Z,26.23
2022-12-15T05:27:45.950Z,26.73
2022-12-15T05:30:31.305Z,26.90
2022-12-15T05:32:58.176Z,26.75
2022-12-15T05:35:25.034Z,27.20
2022-12-15T05:37:51.892Z,27.45
2022-12-15T05:40:18.690Z,28.42
2022-12-15T05:42:50.114Z,28.60
2022-12-15T05:45:17.249Z,29.52
2022-12-15T05:47:44.010Z,29.40
2022-12-15T05:50:10.821Z,29.30
2022-12-15T05:52:37.603Z,30.35
2022-12-15T05:55:05.866Z,29.65
2022-12-15T05:57:32.648Z,28.83
2022-12-15T05:59:59.423Z,28.38
2022-12-15T06:02:28.564Z,27.98
2022-12-15T06:04:55.539Z,27.17
2022-12-15T06:07:22.737Z,28.23
2022-12-15T06:09:49.541Z,28.35
2022-12-15T06:12:16.659Z,27.35
2022-12-15T06:14:43.419Z,38.70
2022-12-15T06:17:10.320Z,31.48
2022-12-15T06:19:37.108Z,28.67
2022-12-15T06:22:04.159Z,27.85
2022-12-15T06:24:31.079Z,28.23
2022-12-15T06:26:57.919Z,28.50
2022-12-15T06:29:24.842Z,28.83
2022-12-15T06:31:51.793Z,28.67
2022-12-15T06:34:18.701Z,27.48
2022-12-15T06:36:45.559Z,27.40
2022-12-15T06:39:15.256Z,27.50
2022-12-15T06:41:43.148Z,27.83
2022-12-15T06:44:14.643Z,28.80
2022-12-15T06:46:41.838Z,28.33
2022-12-15T06:49:09.245Z,28.98
2022-12-15T06:51:36.659Z,27.13
2022-12-15T06:54:03.614Z,26.80
2022-12-15T06:56:35.994Z,28.35
2022-12-15T06:59:04.744Z,28.90
2022-12-15T07:01:32.410Z,28.58
2022-12-15T07:04:01.476Z,28.50
2022-12-15T07:06:31.918Z,28.35
2022-12-15T07:08:59.062Z,28.13
2022-12-15T07:11:25.964Z,27.85
2022-12-15T07:13:53.786Z,28.83
2022-12-15T07:16:22.390Z,28.20
2022-12-15T07:18:49.948Z,27.02
2022-12-15T07:21:17.511Z,27.80
2022-12-15T07:24:00.922Z,30.45
2022-12-15T07:26:28.539Z,29.27
2022-12-15T07:28:56.074Z,29.33
2022-12-15T07:31:23.363Z,29.80
2022-12-15T07:33:52.261Z,29.73
2022-12-15T07:36:19.638Z,29.73
2022-12-15T07:38:50.604Z,30.02
2022-12-15T07:41:19.544Z,28.73
2022-12-15T07:43:47.770Z,28.10
2022-12-15T07:46:15.194Z,27.27
2022-12-15T07:48:42.128Z,28.45
2022-12-15T07:51:17.221Z,28.38
2022-12-15T07:53:50.203Z,28.23
2022-12-15T07:56:20.819Z,26.92
2022-12-15T07:58:48.125Z,28.17
2022-12-15T08:01:15.885Z,29.15
2022-12-15T08:03:43.332Z,27.65
2022-12-15T08:06:13.069Z,26.58
2022-12-15T08:08:40.671Z,28.58
2022-12-15T08:11:13.568Z,31.02
2022-12-15T08:16:29.245Z,30.98
2022-12-15T08:18:57.274Z,31.83
2022-12-15T08:21:24.645Z,32.30
2022-12-15T08:23:51.481Z,30.52
2022-12-15T08:26:20.686Z,29.30
2022-12-15T08:28:50.548Z,26.98
2022-12-15T08:31:20.041Z,28.42
2022-12-15T08:33:47.461Z,28.55
2022-12-15T08:36:16.649Z,28.48
2022-12-15T08:38:45.595Z,27.08
2022-12-15T08:41:23.401Z,27.15
2022-12-15T08:43:51.317Z,29.08
2022-12-15T08:46:20.935Z,27.48
2022-12-15T08:48:48.831Z,27.52
2022-12-15T08:51:16.382Z,26.83
2022-12-15T08:53:43.552Z,28.38
2022-12-15T08:56:15.992Z,28.10
2022-12-15T08:58:43.325Z,28.27
2022-12-15T09:01:19.013Z,28.98
2022-12-15T09:03:50.504Z,27.30
2022-12-15T09:06:20.633Z,27.63
2022-12-15T09:08:48.551Z,27.92
2022-12-15T09:11:17.342Z,27.88
2022-12-15T09:13:44.601Z,26.80
2022-12-15T09:16:14.826Z,27.20
2022-12-15T09:18:47.043Z,27.00
2022-12-15T09:21:14.513Z,27.65
2022-12-15T09:23:42.463Z,25.80
2022-12-15T09:26:12.910Z,27.33
2022-12-15T09:28:40.029Z,26.13
2022-12-15T09:31:15.174Z,27.95
2022-12-15T09:33:43.285Z,24.67
2022-12-15T09:36:13.213Z,24.73
2022-12-15T09:38:42.013Z,24.80
2022-12-15T09:41:09.519Z,25.45
2022-12-15T09:43:46.562Z,25.85
2022-12-15T09:46:26.591Z,25.73
2022-12-15T09:48:55.882Z,25.45
2022-12-15T09:51:34.717Z,27.10
2022-12-15T09:54:02.150Z,24.80
2022-12-15T09:56:49.800Z,26.83
2022-12-15T09:59:25.619Z,26.80
2022-12-15T10:02:21.391Z,27.10
2022-12-15T10:05:00.117Z,26.85
2022-12-15T10:07:42.109Z,25.90
2022-12-15T10:10:24.213Z,26.70
2022-12-15T10:13:02.062Z,26.65
2022-12-15T10:16:07.524Z,26.58
2022-12-15T10:18:57.574Z,26.42
2022-12-15T10:21:29.095Z,25.35
2022-12-15T10:27:51.959Z,25.52
2022-12-15T10:30:19.344Z,24.55
2022-12-15T10:33:03.593Z,26.90
2022-12-15T10:35:36.018Z,26.42
2022-12-15T10:38:05.999Z,26.42
2022-12-15T10:40:50.484Z,26.20
2022-12-15T10:43:25.832Z,27.30
2022-12-15T10:46:20.722Z,28.52
2022-12-15T10:49:21.235Z,28.17
2022-12-15T10:51:57.435Z,28.88
2022-12-15T10:54:32.337Z,30.23
2022-12-15T10:57:03.423Z,31.60
2022-12-15T10:59:37.312Z,30.90
2022-12-15T11:02:25.744Z,31.40
2022-12-15T11:05:16.123Z,30.83
2022-12-15T11:07:46.243Z,28.38
2022-12-15T11:10:22.521Z,29.23
2022-12-15T11:13:16.687Z,27.75
2022-12-15T11:15:51.803Z,28.45
2022-12-15T11:18:39.410Z,27.38
2022-12-15T11:21:17.280Z,27.40
2022-12-15T11:24:13.646Z,25.45
2022-12-15T11:26:40.464Z,26.30
2022-12-15T11:29:16.627Z,26.67
2022-12-15T11:31:45.329Z,25.92
2022-12-15T11:34:18.318Z,26.23
2022-12-15T11:36:48.447Z,26.13
2022-12-15T11:39:18.708Z,25.13
2022-12-15T11:41:53.979Z,24.40
2022-12-15T11:44:39.546Z,21.67
2022-12-15T11:47:31.460Z,21.98
2022-12-15T11:50:26.355Z,19.85
2022-12-15T11:53:25.722Z,19.80
2022-12-15T11:56:07.018Z,20.48
2022-12-15T11:59:15.279Z,20.98
2022-12-15T12:02:03.897Z,18.55
2022-12-15T12:04:50.892Z,18.00
2022-12-15T12:07:23.741Z,18.42
2022-12-15T12:10:14.375Z,17.15
2022-12-15T12:12:52.265Z,18.52
2022-12-15T12:15:30.071Z,17.95
2022-12-15T12:18:07.560Z,18.02
2022-12-15T12:20:42.313Z,17.98
2022-12-15T12:23:29.414Z,18.38
2022-12-15T12:26:15.668Z,18.73
2022-12-15T12:28:50.217Z,18.52
2022-12-15T12:31:52.351Z,17.38
2022-12-15T12:34:45.578Z,18.27
2022-12-15T12:37:34.532Z,19.65
2022-12-15T12:40:07.523Z,17.55
2022-12-15T12:42:42.398Z,19.58
2022-12-15T12:45:13.640Z,18.55
2022-12-15T12:47:44.824Z,17.08
2022-12-15T12:50:20.203Z,17.63
2022-12-15T12:52:57.358Z,17.27
2022-12-15T12:55:26.286Z,18.17
2022-12-15T12:57:54.525Z,18.20
2022-12-15T13:00:29.807Z,18.13
2022-12-15T13:03:17.274Z,18.42
2022-12-15T13:05:46.318Z,17.60
2022-12-15T13:08:15.742Z,17.80
2022-12-15T13:10:45.318Z,18.08
2022-12-15T13:13:32.919Z,18.40
2022-12-15T13:16:12.031Z,18.00
2022-12-15T13:19:03.645Z,17.63
2022-12-15T13:21:45.717Z,17.20
2022-12-15T13:24:56.190Z,17.48
2022-12-15T13:27:24.099Z,17.10
2022-12-15T13:30:07.334Z,16.48
2022-12-15T13:32:36.955Z,17.58
2022-12-15T13:35:32.162Z,19.23
2022-12-15T13:38:03.005Z,18.33
2022-12-15T13:40:51.901Z,16.52
2022-12-15T13:43:27.155Z,16.08
2022-12-15T13:45:59.201Z,15.07
2022-12-15T13:48:56.497Z,14.82
2022-12-15T13:51:26.361Z,16.20
2022-12-15T13:54:18.076Z,15.27
2022-12-15T13:56:50.847Z,15.63
2022-12-15T13:59:25.753Z,15.02
2022-12-15T14:01:53.745Z,15.93
2022-12-15T14:04:21.902Z,15.82
2022-12-15T14:07:01.617Z,17.60
2022-12-15T14:09:35.506Z,16.50
2022-12-15T14:12:05.019Z,16.00
2022-12-15T14:14:37.069Z,14.88
2022-12-15T14:17:09.743Z,14.30
2022-12-15T14:19:42.126Z,14.93
2022-12-15T14:22:29.065Z,14.63
2022-12-15T14:25:18.477Z,13.40
2022-12-15T14:27:45.512Z,13.18
2022-12-15T14:30:29.603Z,14.10
2022-12-15T14:33:07.098Z,15.60
2022-12-15T14:35:49.610Z,16.13
2022-12-15T14:38:44.912Z,18.08
2022-12-15T14:41:22.195Z,19.13
2022-12-15T14:44:36.252Z,19.50
2022-12-15T14:46:38.450Z,18.35
2022-12-15T14:49:07.556Z,18.67
2022-12-15T14:51:43.424Z,19.45
2022-12-15T14:54:32.024Z,18.98
2022-12-15T14:57:21.042Z,19.88
2022-12-15T14:59:49.450Z,20.92
2022-12-15T15:02:26.691Z,20.05
2022-12-15T15:03:09.452Z,25.83
2022-12-15T15:05:05.607Z,20.70
2022-12-15T15:07:33.773Z,20.70
2022-12-15T15:10:02.119Z,19.73
2022-12-15T15:12:45.799Z,21.88
2022-12-15T15:15:19.805Z,21.60
2022-12-15T15:17:52.870Z,20.60
2022-12-15T15:20:27.787Z,21.85
2022-12-15T15:23:12.572Z,20.98
2022-12-15T15:25:41.554Z,21.55
2022-12-15T15:28:18.041Z,20.48
2022-12-15T15:30:50.893Z,21.48
2022-12-15T15:33:19.404Z,22.25
2022-12-15T15:35:53.254Z,20.52
2022-12-15T15:38:23.580Z,22.10
2022-12-15T15:40:56.024Z,22.38
2022-12-15T15:43:24.424Z,22.33
2022-12-15T15:46:08.655Z,21.83
2022-12-15T15:49:09.810Z,22.08
2022-12-15T15:51:37.763Z,22.25
2022-12-15T15:54:13.995Z,22.42
2022-12-15T15:56:41.567Z,22.98
2022-12-15T15:59:28.952Z,21.88
2022-12-15T16:01:56.380Z,24.08
2022-12-15T16:04:24.249Z,37.63
2022-12-15T16:06:52.256Z,39.65
2022-12-15T16:09:19.357Z,36.72
2022-12-15T16:11:46.996Z,54.90
2022-12-15T16:14:16.098Z,57.20
2022-12-15T16:16:44.120Z,47.65
2022-12-15T16:19:12.319Z,43.75
2022-12-15T16:21:40.896Z,33.92
2022-12-15T16:24:17.668Z,31.42
2022-12-15T16:26:50.525Z,29.77
2022-12-15T16:29:20.373Z,25.92
2022-12-15T16:31:47.633Z,24.48
2022-12-15T16:34:20.468Z,24.60
2022-12-15T16:36:47.708Z,24.75
2022-12-15T16:39:25.604Z,24.50
2022-12-15T16:41:54.313Z,35.28
2022-12-15T16:44:22.370Z,24.85
2022-12-15T16:46:49.279Z,24.83
2022-12-15T16:49:16.224Z,36.00
2022-12-15T16:51:46.782Z,30.67
2022-12-15T16:54:26.310Z,33.42
2022-12-15T16:56:58.234Z,28.98
2022-12-15T16:59:33.872Z,28.25
2022-12-15T17:02:02.309Z,26.33
2022-12-15T17:04:29.340Z,23.35
2022-12-15T17:06:56.193Z,22.88
2022-12-15T17:09:25.555Z,44.58
2022-12-15T17:11:52.616Z,28.23
2022-12-15T17:14:19.505Z,25.65
2022-12-15T17:16:46.453Z,30.75
2022-12-15T17:19:19.211Z,29.63
2022-12-15T17:21:50.748Z,29.95
2022-12-15T17:24:20.313Z,30.63
2022-12-15T17:26:47.882Z,27.95
2022-12-15T17:29:21.038Z,28.48
2022-12-15T17:31:48.009Z,25.88
2022-12-15T17:34:35.188Z,25.23
2022-12-15T17:37:05.499Z,24.20
2022-12-15T17:39:35.353Z,25.17
2022-12-15T17:42:03.052Z,25.83
2022-12-15T17:44:36.156Z,24.92
2022-12-15T17:47:06.040Z,23.90
2022-12-15T17:49:35.983Z,25.48
2022-12-15T17:52:11.559Z,23.17
2022-12-15T17:54:38.558Z,23.73
2022-12-15T17:57:05.420Z,27.35
2022-12-15T17:59:32.278Z,28.33
2022-12-15T18:01:59.231Z,26.98
2022-12-15T18:04:26.409Z,26.52
2022-12-15T18:06:58.087Z,24.13
2022-12-15T18:09:28.642Z,28.10
2022-12-15T18:11:55.619Z,25.15
2022-12-15T18:14:23.017Z,20.92
2022-12-15T18:16:50.146Z,21.88
2022-12-15T18:19:16.998Z,20.45
2022-12-15T18:21:43.962Z,21.58
2022-12-15T18:24:13.572Z,21.85
2022-12-15T18:26:40.384Z,21.42
2022-12-15T18:29:17.948Z,21.77
2022-12-15T18:31:47.211Z,21.00
2022-12-15T18:34:17.511Z,21.58
2022-12-15T18:36:44.956Z,20.58
2022-12-15T18:39:23.785Z,22.38
2022-12-15T18:41:52.554Z,21.77
2022-12-15T18:44:28.746Z,22.08
2022-12-15T18:46:55.735Z,22.25
2022-12-15T18:49:23.719Z,21.08
2022-12-15T18:51:50.841Z,21.30
2022-12-15T18:54:20.866Z,24.88
2022-12-15T18:56:48.003Z,23.15
2022-12-15T18:59:16.486Z,22.80
2022-12-15T19:01:48.153Z,23.52
2022-12-15T19:04:15.569Z,27.60
2022-12-15T19:06:43.041Z,28.17
2022-12-15T19:09:22.120Z,34.30
2022-12-15T19:12:08.955Z,32.38
2022-12-15T19:14:41.376Z,41.50
2022-12-15T19:17:31.823Z,50.70
2022-12-15T19:20:17.517Z,29.90
2022-12-15T19:22:46.255Z,33.90
2022-12-15T19:25:26.369Z,27.70
2022-12-15T19:28:01.509Z,22.65
2022-12-15T19:30:41.617Z,23.75
2022-12-15T19:33:10.047Z,22.85
2022-12-15T19:35:38.194Z,24.83
2022-12-15T19:38:05.588Z,28.23
2022-12-15T19:40:34.330Z,33.53
2022-12-15T19:43:02.343Z,31.13
2022-12-15T19:45:31.329Z,22.00
2022-12-15T19:47:59.039Z,25.10
2022-12-15T19:50:33.455Z,23.75
2022-12-15T19:53:03.815Z,25.65
2022-12-15T19:55:33.075Z,23.50
2022-12-15T19:58:01.022Z,24.70
2022-12-15T20:00:28.076Z,23.00
2022-12-15T20:02:55.925Z,24.17
2022-12-15T20:05:25.130Z,23.35
2022-12-15T20:07:53.580Z,24.65
2022-12-15T20:10:31.874Z,26.02
2022-12-15T20:13:00.895Z,25.00
2022-12-15T20:15:27.873Z,26.08
2022-12-15T20:17:57.251Z,26.67
2022-12-15T20:20:26.965Z,24.20
2022-12-15T20:22:56.588Z,23.63
2022-12-15T20:25:32.320Z,25.13
2022-12-15T20:28:02.364Z,41.22
2022-12-15T20:30:33.204Z,29.92
2022-12-15T20:33:02.405Z,24.27
2022-12-15T20:35:33.069Z,23.15
2022-12-15T20:38:02.647Z,22.38
2022-12-15T20:40:30.473Z,23.17
2022-12-15T20:42:57.911Z,23.35
2022-12-15T20:45:26.868Z,22.67
2022-12-15T20:47:55.891Z,21.20
2022-12-15T20:50:32.836Z,21.98
2022-12-15T20:52:59.783Z,25.65
2022-12-15T20:55:26.811Z,28.20
2022-12-15T20:57:53.881Z,24.55
2022-12-15T21:00:21.889Z,27.40
2022-12-15T21:02:49.084Z,28.67
2022-12-15T21:05:24.366Z,25.20
2022-12-15T21:07:51.629Z,24.50
2022-12-15T21:10:20.530Z,21.90
2022-12-15T21:12:49.550Z,21.10
2022-12-15T21:15:22.458Z,19.15
2022-12-15T21:18:08.856Z,20.73
2022-12-15T21:20:41.803Z,21.52
2022-12-15T21:23:22.596Z,24.35
2022-12-15T21:25:49.946Z,24.63
2022-12-15T21:28:17.709Z,22.75
2022-12-15T21:30:44.962Z,23.35
2022-12-15T21:33:12.025Z,21.38
2022-12-15T21:35:40.422Z,25.08
2022-12-15T21:38:20.191Z,27.13
2022-12-15T21:40:46.985Z,26.65
2022-12-15T21:43:13.831Z,28.15
2022-12-15T21:45:40.688Z,28.17
2022-12-15T21:48:27.511Z,29.20
2022-12-15T21:50:54.316Z,27.42
2022-12-15T21:53:21.613Z,27.73
2022-12-15T21:55:48.439Z,27.60
2022-12-15T21:58:24.352Z,28.38
2022-12-15T22:00:51.298Z,26.30
2022-12-15T22:03:21.365Z,27.17
2022-12-15T22:05:48.250Z,28.27
2022-12-15T22:08:22.525Z,28.20
2022-12-15T22:10:52.036Z,30.50
2022-12-15T22:13:23.240Z,29.25
2022-12-15T22:15:54.660Z,27.33
2022-12-15T22:18:22.504Z,27.52
2022-12-15T22:20:50.759Z,27.50
2022-12-15T22:23:18.596Z,26.98
2022-12-15T22:25:47.721Z,29.40
2022-12-15T22:28:21.801Z,26.95
2022-12-15T22:30:52.745Z,26.67
2022-12-15T22:33:24.623Z,27.05
2022-12-15T22:35:53.477Z,27.02
2022-12-15T22:38:23.756Z,27.90
2022-12-15T22:40:53.639Z,26.75
2022-12-15T22:43:31.551Z,26.55
2022-12-15T22:45:59.758Z,26.42
2022-12-15T22:48:31.904Z,26.73
2022-12-15T22:50:59.320Z,25.75
2022-12-15T22:53:29.386Z,26.50
2022-12-15T22:55:56.293Z,25.35
2022-12-15T22:58:33.330Z,26.63
2022-12-15T23:01:01.278Z,28.00
2022-12-15T23:03:29.497Z,26.70
2022-12-15T23:05:57.214Z,26.55
2022-12-15T23:08:24.025Z,26.42
2022-12-15T23:11:09.463Z,27.13
2022-12-15T23:13:36.382Z,26.83
2022-12-15T23:16:23.055Z,28.20
2022-12-15T23:18:55.198Z,28.40
2022-12-15T23:21:23.749Z,27.65
2022-12-15T23:23:50.874Z,29.90
2022-12-15T23:26:20.747Z,28.08
2022-12-15T23:28:47.884Z,25.58
2022-12-15T23:31:14.940Z,27.67
2022-12-15T23:33:41.878Z,25.63
2022-12-15T23:36:09.926Z,26.02
2022-12-15T23:38:36.727Z,23.88
2022-12-15T23:41:03.738Z,23.67
2022-12-15T23:43:33.198Z,22.95
2022-12-15T23:46:07.294Z,23.48
2022-12-15T23:48:38.326Z,23.67
2022-12-15T23:51:09.550Z,26.92
2022-12-15T23:53:37.059Z,28.50
2022-12-15T23:56:18.658Z,26.77
2022-12-15T23:58:46.869Z,28.45
